Time;durP1;ratioP1;P1;durP2;ratioP2;P2;SDS_P1;SDS_P2;PMS_P1;PMS_P2;Temp;Humidity;BMP_temperature;BMP_pressure;BME280_temperature;BME280_humidity;BME280_pressure;Samples;Min_cycle;Max_cycle;Signal;HPM_P1;HPM_P2
2023/08/29 00:01:55;;;;;;;6.93;6.43;;;18.00;95.20;;;;;;5077201;28;20500;-59
2023/08/29 00:04:21;;;;;;;7.77;7.07;;;18.00;95.40;;;;;;5077064;28;20444;-59
2023/08/29 00:06:48;;;;;;;7.20;6.60;;;18.00;95.50;;;;;;5077135;28;20550;-59
2023/08/29 00:09:16;;;;;;;7.90;7.20;;;18.10;95.40;;;;;;5077109;28;20844;-59
2023/08/29 00:11:43;;;;;;;7.30;6.60;;;18.10;95.40;;;;;;5076882;28;20476;-59
2023/08/29 00:14:10;;;;;;;8.70;7.90;;;18.00;95.50;;;;;;5077042;28;20864;-59
2023/08/29 00:16:36;;;;;;;8.90;8.23;;;18.10;95.70;;;;;;5076967;28;20810;-59
2023/08/29 00:19:03;;;;;;;9.97;9.17;;;18.10;95.80;;;;;;5076465;28;20938;-60
2023/08/29 00:21:30;;;;;;;9.63;8.80;;;18.10;95.90;;;;;;5076491;28;20484;-59
2023/08/29 00:23:57;;;;;;;9.80;8.90;;;18.10;95.90;;;;;;5076647;28;20441;-59
2023/08/29 00:26:25;;;;;;;10.43;9.53;;;18.10;95.90;;;;;;5076619;28;20505;-59
2023/08/29 00:28:53;;;;;;;10.47;9.67;;;18.10;95.90;;;;;;5076326;28;20956;-59
2023/08/29 00:31:20;;;;;;;10.33;9.53;;;18.10;95.90;;;;;;5076308;28;20468;-59
2023/08/29 00:33:47;;;;;;;10.23;9.27;;;18.00;96.00;;;;;;5076596;28;20444;-59
2023/08/29 00:36:14;;;;;;;10.50;9.70;;;18.00;96.10;;;;;;5076349;28;20463;-59
2023/08/29 00:38:40;;;;;;;10.30;9.50;;;18.00;96.20;;;;;;5076039;28;20996;-59
2023/08/29 00:41:07;;;;;;;10.70;9.70;;;18.00;96.10;;;;;;5076056;28;20480;-59
2023/08/29 00:43:35;;;;;;;10.00;9.20;;;18.00;96.10;;;;;;5076297;28;20452;-59
2023/08/29 00:46:02;;;;;;;9.30;8.60;;;17.90;96.20;;;;;;5076183;28;20440;-60
2023/08/29 00:48:29;;;;;;;9.93;9.10;;;17.90;96.20;;;;;;5076134;28;20470;-59
2023/08/29 00:50:56;;;;;;;10.90;9.87;;;18.00;96.30;;;;;;5076090;28;20460;-60
2023/08/29 00:53:24;;;;;;;11.00;10.00;;;18.00;96.20;;;;;;5076143;28;20827;-59
2023/08/29 00:55:51;;;;;;;12.23;11.17;;;18.00;96.10;;;;;;5076105;28;20448;-59
2023/08/29 00:58:18;;;;;;;11.47;10.57;;;18.10;96.20;;;;;;5075769;28;20449;-59
2023/08/29 01:00:46;;;;;;;10.53;9.47;;;18.00;96.30;;;;;;5075508;28;20503;-60
2023/08/29 01:03:13;;;;;;;11.20;10.30;;;18.00;96.40;;;;;;5077924;28;20493;-59
2023/08/29 01:05:40;;;;;;;10.27;9.47;;;18.00;96.50;;;;;;5077429;28;20452;-59
2023/08/29 01:08:07;;;;;;;10.40;9.17;;;18.00;96.40;;;;;;5076660;28;20455;-61
2023/08/29 01:10:42;;;;;;;11.23;10.30;;;18.00;96.40;;;;;;5076358;28;20441;-60
2023/08/29 01:13:18;;;;;;;11.57;10.67;;;18.00;96.50;;;;;;5076040;28;20456;-60
2023/08/29 01:15:51;;;;;;;12.50;11.30;;;17.90;96.60;;;;;;5076090;28;20436;-60
2023/08/29 01:18:20;;;;;;;12.60;11.50;;;17.90;96.70;;;;;;5075903;28;20433;-60
2023/08/29 01:20:50;;;;;;;13.10;12.00;;;17.80;96.80;;;;;;5075591;28;20820;-60
2023/08/29 01:23:22;;;;;;;13.07;12.07;;;17.80;97.10;;;;;;5075846;28;20429;-60
2023/08/29 01:25:53;;;;;;;13.83;12.80;;;17.80;97.30;;;;;;5075572;28;20436;-60
2023/08/29 01:28:21;;;;;;;12.47;11.37;;;17.80;97.40;;;;;;5075581;28;20437;-60
2023/08/29 01:30:49;;;;;;;12.30;11.20;;;17.80;97.60;;;;;;5075486;28;20443;-60
2023/08/29 01:33:16;;;;;;;14.43;12.00;;;17.80;97.40;;;;;;5075225;28;20969;-60
2023/08/29 01:35:45;;;;;;;14.17;13.07;;;17.80;97.40;;;;;;5075566;28;20449;-60
2023/08/29 01:38:12;;;;;;;14.70;13.40;;;17.80;97.60;;;;;;5075842;28;20918;-60
2023/08/29 01:40:39;;;;;;;13.70;12.50;;;17.70;97.60;;;;;;5075363;28;20488;-60
2023/08/29 01:43:06;;;;;;;13.97;12.47;;;17.80;97.80;;;;;;5075198;28;20500;-60
2023/08/29 01:45:34;;;;;;;14.37;13.07;;;17.80;97.70;;;;;;5075272;28;20452;-60
2023/08/29 01:48:01;;;;;;;14.20;13.00;;;17.80;97.70;;;;;;5074889;28;20456;-60
2023/08/29 01:50:30;;;;;;;14.57;13.27;;;17.80;97.70;;;;;;5075215;28;20449;-60
2023/08/29 01:52:57;;;;;;;15.47;13.90;;;17.80;97.60;;;;;;5074930;28;20591;-60
2023/08/29 01:55:25;;;;;;;13.30;12.20;;;17.90;97.70;;;;;;5075014;28;20441;-60
2023/08/29 01:57:52;;;;;;;13.77;12.63;;;17.80;97.70;;;;;;5075742;28;20445;-60
2023/08/29 02:00:19;;;;;;;14.13;12.93;;;17.90;97.80;;;;;;5074505;28;20465;-59
2023/08/29 02:02:47;;;;;;;14.73;13.40;;;17.80;97.70;;;;;;5074861;28;20479;-59
2023/08/29 02:05:14;;;;;;;18.10;12.33;;;17.90;97.80;;;;;;5074818;28;20448;-59
2023/08/29 02:07:41;;;;;;;15.00;13.80;;;17.90;97.70;;;;;;5074706;28;20433;-59
2023/08/29 02:10:09;;;;;;;13.07;11.87;;;17.90;97.70;;;;;;5074792;28;20436;-59
2023/08/29 02:12:37;;;;;;;13.77;12.57;;;17.90;97.70;;;;;;5074483;28;20460;-59
2023/08/29 02:15:05;;;;;;;14.40;13.20;;;17.80;97.60;;;;;;5074682;28;20441;-59
2023/08/29 02:17:32;;;;;;;13.37;12.27;;;17.80;97.70;;;;;;5074601;28;20502;-59
2023/08/29 02:20:00;;;;;;;13.63;12.40;;;17.80;97.80;;;;;;5074578;28;20493;-59
2023/08/29 02:22:27;;;;;;;13.37;12.30;;;17.80;98.20;;;;;;5074135;28;20476;-59
2023/08/29 02:24:54;;;;;;;13.63;12.33;;;17.70;98.00;;;;;;5074114;28;20939;-59
2023/08/29 02:27:20;;;;;;;13.30;12.20;;;17.70;98.10;;;;;;5074373;28;20519;-59
2023/08/29 02:29:47;;;;;;;13.30;12.00;;;17.70;98.20;;;;;;5074317;28;20463;-59
2023/08/29 02:32:14;;;;;;;12.90;11.80;;;17.60;98.20;;;;;;5074303;28;20464;-59
2023/08/29 02:34:40;;;;;;;12.40;11.40;;;17.70;98.20;;;;;;5074381;28;20444;-60
2023/08/29 02:37:08;;;;;;;12.80;11.60;;;17.70;98.30;;;;;;5074209;28;20444;-59
2023/08/29 02:39:35;;;;;;;13.20;12.10;;;17.60;98.30;;;;;;5074069;28;20449;-59
2023/08/29 02:42:02;;;;;;;11.57;10.53;;;17.60;98.30;;;;;;5074086;28;20465;-59
2023/08/29 02:44:28;;;;;;;12.83;11.60;;;17.70;98.20;;;;;;5074099;28;20441;-59
2023/08/29 02:46:55;;;;;;;12.67;11.73;;;17.70;98.00;;;;;;5073886;28;20519;-59
2023/08/29 02:49:22;;;;;;;11.80;10.70;;;17.80;97.70;;;;;;5073994;28;20443;-59
2023/08/29 02:51:48;;;;;;;12.03;10.90;;;17.80;97.50;;;;;;5073489;28;20460;-59
2023/08/29 02:54:18;;;;;;;11.80;10.67;;;17.70;97.50;;;;;;5073606;28;20455;-59
2023/08/29 02:56:44;;;;;;;11.87;10.87;;;17.80;97.60;;;;;;5073683;28;20495;-59
2023/08/29 02:59:11;;;;;;;12.43;11.43;;;17.70;97.50;;;;;;5073582;28;20448;-59
2023/08/29 03:01:38;;;;;;;11.37;10.37;;;17.80;97.60;;;;;;5073628;28;20484;-59
2023/08/29 03:04:05;;;;;;;11.87;10.87;;;17.80;97.40;;;;;;5073776;28;20447;-59
2023/08/29 03:06:31;;;;;;;11.23;10.33;;;17.80;97.20;;;;;;5073411;28;20923;-59
2023/08/29 03:08:58;;;;;;;10.73;9.83;;;17.70;97.30;;;;;;5073456;28;21011;-59
2023/08/29 03:11:26;;;;;;;11.23;10.13;;;17.70;97.30;;;;;;5073351;28;20990;-59
2023/08/29 03:13:53;;;;;;;11.83;10.83;;;17.70;97.30;;;;;;5073378;28;20822;-59
2023/08/29 03:16:20;;;;;;;12.40;11.20;;;17.60;97.10;;;;;;5073701;28;20472;-59
2023/08/29 03:18:47;;;;;;;10.73;9.90;;;17.60;97.20;;;;;;5073716;28;20437;-60
2023/08/29 03:21:13;;;;;;;12.70;11.50;;;17.60;97.40;;;;;;5073306;28;20489;-60
2023/08/29 03:23:40;;;;;;;12.13;11.03;;;17.60;97.50;;;;;;5073185;28;20471;-60
2023/08/29 03:26:08;;;;;;;12.27;11.07;;;17.50;97.50;;;;;;5073572;28;20464;-60
2023/08/29 03:28:37;;;;;;;13.53;12.30;;;17.50;97.80;;;;;;5073628;28;20445;-59
2023/08/29 03:31:11;;;;;;;12.67;11.57;;;17.40;97.70;;;;;;5073558;28;20445;-60
2023/08/29 03:33:38;;;;;;;12.67;11.53;;;17.40;97.80;;;;;;5075688;28;20811;-61
2023/08/29 03:36:05;;;;;;;13.00;11.80;;;17.40;97.90;;;;;;5075939;28;20441;-60
2023/08/29 03:38:34;;;;;;;12.50;11.50;;;17.30;98.10;;;;;;5073547;28;20437;-60
2023/08/29 03:41:01;;;;;;;14.23;12.50;;;17.20;98.20;;;;;;5073156;28;20484;-60
2023/08/29 03:43:28;;;;;;;12.63;11.53;;;17.10;98.30;;;;;;5073344;28;20449;-60
2023/08/29 03:45:58;;;;;;;14.20;12.80;;;17.10;98.60;;;;;;5073306;28;20440;-60
2023/08/29 03:48:25;;;;;;;12.80;11.60;;;17.00;98.70;;;;;;5072982;28;20949;-60
2023/08/29 03:50:51;;;;;;;12.40;11.30;;;17.10;98.90;;;;;;5072695;28;20432;-60
2023/08/29 03:53:18;;;;;;;12.33;11.30;;;17.10;99.00;;;;;;5073070;28;20436;-60
2023/08/29 03:55:48;;;;;;;12.70;11.60;;;17.00;99.00;;;;;;5072754;28;20853;-60
2023/08/29 03:58:14;;;;;;;14.30;11.70;;;17.00;99.10;;;;;;5073117;28;20437;-60
2023/08/29 04:00:42;;;;;;;12.53;11.33;;;17.00;99.20;;;;;;5072937;28;20484;-60
2023/08/29 04:03:10;;;;;;;11.03;10.13;;;17.00;99.30;;;;;;5072739;28;20993;-60
2023/08/29 04:05:37;;;;;;;12.47;11.00;;;17.00;99.30;;;;;;5073032;28;20436;-60
2023/08/29 04:08:05;;;;;;;12.17;11.00;;;17.00;99.20;;;;;;5072898;28;20441;-59
2023/08/29 04:10:38;;;;;;;10.67;9.77;;;17.00;99.20;;;;;;5073007;28;20476;-60
2023/08/29 04:13:06;;;;;;;12.67;11.47;;;17.00;99.20;;;;;;5073945;28;20492;-59
2023/08/29 04:15:33;;;;;;;11.30;10.27;;;17.00;99.00;;;;;;5074026;28;20478;-59
2023/08/29 04:18:00;;;;;;;11.33;10.33;;;17.00;99.00;;;;;;5073901;28;20451;-60
2023/08/29 04:20:28;;;;;;;12.03;10.93;;;17.00;98.90;;;;;;5073104;28;20480;-60
2023/08/29 04:22:55;;;;;;;11.93;10.83;;;17.00;99.00;;;;;;5072514;28;20472;-60
2023/08/29 04:25:26;;;;;;;11.80;10.80;;;17.00;98.90;;;;;;5072707;28;20951;-60
2023/08/29 04:27:52;;;;;;;12.20;11.00;;;17.00;99.00;;;;;;5073112;28;20437;-60
2023/08/29 04:30:19;;;;;;;12.83;11.60;;;17.00;99.10;;;;;;5073116;28;20444;-59
2023/08/29 04:32:47;;;;;;;11.73;10.50;;;17.00;99.20;;;;;;5072431;28;20845;-60
2023/08/29 04:35:14;;;;;;;12.50;11.23;;;16.90;99.30;;;;;;5072617;28;20852;-60
2023/08/29 04:37:46;;;;;;;11.50;10.50;;;16.90;99.40;;;;;;5075669;28;20452;-60
2023/08/29 04:40:12;;;;;;;12.50;11.20;;;16.90;99.40;;;;;;5076454;28;20437;-60
2023/08/29 04:42:40;;;;;;;12.00;11.00;;;16.90;99.30;;;;;;5076417;28;20468;-60
2023/08/29 04:45:08;;;;;;;11.67;10.57;;;17.00;99.20;;;;;;5076338;28;20539;-59
2023/08/29 04:47:35;;;;;;;11.67;10.67;;;17.00;99.10;;;;;;5076436;28;20440;-58
2023/08/29 04:50:03;;;;;;;11.40;10.20;;;17.00;98.90;;;;;;5076581;28;20441;-59
2023/08/29 04:52:29;;;;;;;11.50;10.40;;;17.10;99.00;;;;;;5076630;28;20464;-59
2023/08/29 04:54:58;;;;;;;10.80;10.00;;;17.10;98.50;;;;;;5075916;28;20951;-59
2023/08/29 04:57:25;;;;;;;10.80;9.83;;;17.10;98.40;;;;;;5076248;28;20441;-59
2023/08/29 04:59:52;;;;;;;11.73;10.63;;;17.10;98.40;;;;;;5076104;28;20527;-59
2023/08/29 05:02:18;;;;;;;11.70;10.73;;;17.10;98.40;;;;;;5076086;28;20514;-59
2023/08/29 05:04:47;;;;;;;12.60;11.60;;;17.10;98.40;;;;;;5076085;28;20463;-59
2023/08/29 05:07:14;;;;;;;12.17;11.00;;;17.00;98.40;;;;;;5075978;28;20532;-59
2023/08/29 05:09:40;;;;;;;11.67;10.70;;;17.00;98.50;;;;;;5075413;28;20962;-60
2023/08/29 05:12:10;;;;;;;12.00;10.80;;;17.00;98.70;;;;;;5075802;28;20457;-59
2023/08/29 05:14:38;;;;;;;11.70;10.67;;;17.00;98.80;;;;;;5075862;28;20445;-59
2023/08/29 05:17:04;;;;;;;12.47;11.43;;;17.00;98.80;;;;;;5075727;28;20470;-59
2023/08/29 05:19:31;;;;;;;12.83;11.83;;;16.90;99.20;;;;;;5075485;28;20460;-59
2023/08/29 05:21:58;;;;;;;13.87;11.20;;;16.90;99.10;;;;;;5075076;28;21071;-59
2023/08/29 05:24:26;;;;;;;13.03;11.83;;;16.90;99.10;;;;;;5075769;28;20563;-59
2023/08/29 05:26:52;;;;;;;12.33;11.20;;;16.90;99.20;;;;;;5075474;28;21019;-59
2023/08/29 05:29:20;;;;;;;14.03;12.60;;;16.90;99.20;;;;;;5075530;28;20440;-59
2023/08/29 05:31:47;;;;;;;12.40;11.30;;;16.90;99.10;;;;;;5075409;28;20456;-59
2023/08/29 05:34:14;;;;;;;13.30;12.10;;;16.90;99.20;;;;;;5075210;28;20455;-59
2023/08/29 05:36:40;;;;;;;12.73;11.53;;;17.00;99.30;;;;;;5075391;28;20441;-59
2023/08/29 05:39:07;;;;;;;11.70;10.70;;;17.00;99.20;;;;;;5075478;28;20444;-59
2023/08/29 05:41:34;;;;;;;12.67;11.57;;;17.00;99.00;;;;;;5075180;28;20491;-59
2023/08/29 05:44:00;;;;;;;12.73;11.63;;;17.00;99.00;;;;;;5074947;28;20938;-59
2023/08/29 05:46:28;;;;;;;13.00;11.80;;;17.10;99.10;;;;;;5074785;28;20448;-59
2023/08/29 05:48:57;;;;;;;12.57;11.47;;;17.10;99.10;;;;;;5074795;28;20947;-59
2023/08/29 05:51:24;;;;;;;13.10;12.00;;;17.10;99.20;;;;;;5075450;28;20460;-59
2023/08/29 05:53:51;;;;;;;12.80;11.73;;;17.10;99.20;;;;;;5075040;28;20448;-59
2023/08/29 05:56:17;;;;;;;13.60;12.30;;;17.20;99.20;;;;;;5074992;28;20448;-59
2023/08/29 05:58:44;;;;;;;14.10;12.70;;;17.30;99.20;;;;;;5075554;28;20445;-59
2023/08/29 06:01:11;;;;;;;13.20;12.00;;;17.30;99.20;;;;;;5074895;28;20484;-59
2023/08/29 06:03:39;;;;;;;15.13;13.20;;;17.30;99.20;;;;;;5074562;28;20441;-59
2023/08/29 06:06:05;;;;;;;13.27;12.07;;;17.40;99.10;;;;;;5074597;28;20856;-59
2023/08/29 06:08:33;;;;;;;13.97;12.53;;;17.40;98.90;;;;;;5074853;28;20440;-59
2023/08/29 06:11:00;;;;;;;13.10;12.00;;;17.50;98.90;;;;;;5074643;28;20464;-59
2023/08/29 06:13:26;;;;;;;13.97;12.77;;;17.50;98.90;;;;;;5074572;28;20436;-59
2023/08/29 06:15:53;;;;;;;13.90;12.73;;;17.50;98.70;;;;;;5074564;28;20441;-59
2023/08/29 06:18:20;;;;;;;16.80;12.63;;;17.50;98.70;;;;;;5074665;28;20444;-59
2023/08/29 06:20:48;;;;;;;14.40;13.00;;;17.50;98.90;;;;;;5074449;28;20441;-59
2023/08/29 06:23:14;;;;;;;15.23;13.80;;;17.50;98.90;;;;;;5074164;28;20978;-59
2023/08/29 06:25:41;;;;;;;14.57;13.27;;;17.60;99.00;;;;;;5074354;28;20448;-59
2023/08/29 06:28:08;;;;;;;15.50;14.07;;;17.60;99.00;;;;;;5074132;28;20471;-59
2023/08/29 06:30:35;;;;;;;16.80;13.10;;;17.60;98.90;;;;;;5074361;28;20468;-59
2023/08/29 06:33:06;;;;;;;15.53;14.23;;;17.60;99.00;;;;;;5074254;28;20526;-59
2023/08/29 06:35:36;;;;;;;14.43;12.73;;;17.70;99.00;;;;;;5074362;28;20429;-59
2023/08/29 06:38:04;;;;;;;15.43;14.07;;;17.70;99.00;;;;;;5074262;28;20457;-59
2023/08/29 06:40:31;;;;;;;13.73;12.57;;;17.80;99.00;;;;;;5074137;28;20510;-59
2023/08/29 06:42:58;;;;;;;13.90;12.60;;;17.90;98.80;;;;;;5074038;28;20529;-59
2023/08/29 06:45:24;;;;;;;15.80;14.20;;;18.00;98.70;;;;;;5073558;28;20951;-59
2023/08/29 06:47:51;;;;;;;15.07;13.57;;;18.00;98.70;;;;;;5074578;28;20789;-58
2023/08/29 06:50:18;;;;;;;14.60;13.17;;;18.10;98.30;;;;;;5073731;28;20445;-59
2023/08/29 06:52:45;;;;;;;15.00;13.60;;;18.10;98.10;;;;;;5073728;28;20468;-59
2023/08/29 06:55:13;;;;;;;14.20;13.00;;;18.10;98.10;;;;;;5073990;28;20437;-58
2023/08/29 06:57:40;;;;;;;14.70;13.40;;;18.20;98.10;;;;;;5073587;28;20956;-58
2023/08/29 07:00:10;;;;;;;13.93;12.83;;;18.20;98.20;;;;;;5073127;28;20445;-58
2023/08/29 07:02:36;;;;;;;16.20;14.57;;;18.30;98.00;;;;;;5074104;28;20480;-58
2023/08/29 07:05:04;;;;;;;15.20;13.80;;;18.30;98.20;;;;;;5073632;28;20456;-58
2023/08/29 07:07:32;;;;;;;15.97;14.43;;;18.30;98.00;;;;;;5073839;28;20490;-59
2023/08/29 07:09:58;;;;;;;15.90;14.30;;;18.40;97.70;;;;;;5073895;28;20441;-58
2023/08/29 07:12:26;;;;;;;15.37;14.00;;;18.40;97.80;;;;;;5073694;28;20472;-59
2023/08/29 07:14:53;;;;;;;14.50;13.20;;;18.50;97.90;;;;;;5073641;28;20441;-59
2023/08/29 07:17:20;;;;;;;14.60;13.30;;;18.60;97.70;;;;;;5073642;28;20817;-58
2023/08/29 07:19:46;;;;;;;15.97;14.57;;;18.70;97.20;;;;;;5073697;28;20468;-58
2023/08/29 07:22:13;;;;;;;15.73;14.33;;;18.70;97.10;;;;;;5073374;28;20499;-59
2023/08/29 07:24:40;;;;;;;15.00;13.50;;;18.80;96.80;;;;;;5073984;28;20494;-59
2023/08/29 07:27:07;;;;;;;14.73;13.23;;;18.90;96.60;;;;;;5073136;28;20980;-59
2023/08/29 07:29:35;;;;;;;14.60;13.30;;;18.90;96.40;;;;;;5073308;28;20845;-58
2023/08/29 07:32:01;;;;;;;15.60;14.10;;;18.90;96.40;;;;;;5073474;28;20460;-59
2023/08/29 07:34:28;;;;;;;15.70;14.20;;;19.00;96.10;;;;;;5073388;28;20451;-59
2023/08/29 07:36:55;;;;;;;14.30;12.77;;;19.00;96.10;;;;;;5073385;28;20453;-59
2023/08/29 07:39:24;;;;;;;14.73;13.43;;;19.10;96.10;;;;;;5073355;28;20456;-58
2023/08/29 07:41:51;;;;;;;14.83;13.43;;;19.20;96.10;;;;;;5073099;28;20484;-59
2023/08/29 07:44:17;;;;;;;16.77;15.23;;;19.30;95.90;;;;;;5073286;28;20437;-59
2023/08/29 07:46:45;;;;;;;15.10;13.70;;;19.30;95.50;;;;;;5073341;28;20448;-59
2023/08/29 07:49:14;;;;;;;15.20;13.80;;;19.40;95.30;;;;;;5073237;28;20445;-58
2023/08/29 07:51:40;;;;;;;16.20;14.67;;;19.40;95.50;;;;;;5073149;28;20488;-59
2023/08/29 07:54:07;;;;;;;15.30;14.00;;;19.50;95.30;;;;;;5073161;28;20445;-60
2023/08/29 07:56:34;;;;;;;15.23;13.90;;;19.50;95.00;;;;;;5073079;28;20472;-60
2023/08/29 07:59:01;;;;;;;16.63;15.03;;;19.60;94.70;;;;;;5072925;28;20441;-60
2023/08/29 08:01:27;;;;;;;14.30;12.80;;;19.60;94.40;;;;;;5072663;28;20465;-60
2023/08/29 08:03:55;;;;;;;14.43;13.17;;;19.70;94.60;;;;;;5073055;28;20847;-60
2023/08/29 08:06:22;;;;;;;14.07;12.87;;;19.80;94.50;;;;;;5073089;28;20449;-60
2023/08/29 08:08:49;;;;;;;15.50;14.20;;;19.80;94.40;;;;;;5073036;28;20472;-60
2023/08/29 08:11:16;;;;;;;15.17;13.77;;;19.90;94.40;;;;;;5075839;28;20460;-60
2023/08/29 08:13:42;;;;;;;15.23;13.70;;;20.00;93.80;;;;;;5076923;28;20451;-60
2023/08/29 08:16:09;;;;;;;14.27;12.90;;;20.00;93.80;;;;;;5076496;28;20856;-60
2023/08/29 08:18:36;;;;;;;14.73;13.33;;;20.20;94.00;;;;;;5076893;28;20440;-60
2023/08/29 08:21:05;;;;;;;13.50;12.30;;;20.30;93.70;;;;;;5076508;28;20453;-60
2023/08/29 08:23:32;;;;;;;14.90;11.97;;;20.40;92.40;;;;;;5076375;28;20880;-60
2023/08/29 08:25:58;;;;;;;13.53;12.33;;;20.50;92.50;;;;;;5076663;28;20440;-60
2023/08/29 08:28:25;;;;;;;12.43;11.33;;;20.60;92.40;;;;;;5076352;28;20821;-60
2023/08/29 08:30:52;;;;;;;14.07;12.87;;;20.60;92.30;;;;;;5076530;28;20443;-60
2023/08/29 08:33:19;;;;;;;12.10;11.10;;;20.70;92.40;;;;;;5076254;28;20965;-60
2023/08/29 08:35:46;;;;;;;13.30;12.10;;;20.90;92.20;;;;;;5076251;28;20444;-60
2023/08/29 08:38:14;;;;;;;12.00;11.03;;;21.00;91.70;;;;;;5076353;28;20448;-60
2023/08/29 08:40:41;;;;;;;11.73;10.70;;;21.10;91.40;;;;;;5076359;28;20501;-60
2023/08/29 08:43:09;;;;;;;11.33;10.33;;;21.30;90.70;;;;;;5075966;28;20486;-60
2023/08/29 08:45:37;;;;;;;12.70;11.60;;;21.40;90.50;;;;;;5076276;28;20448;-60
2023/08/29 08:48:04;;;;;;;11.63;10.63;;;21.40;90.10;;;;;;5076221;28;20859;-60
2023/08/29 08:50:31;;;;;;;9.00;8.20;;;21.60;90.10;;;;;;5077057;28;20444;-60
2023/08/29 08:53:00;;;;;;;10.50;9.40;;;21.80;89.80;;;;;;5076151;28;20464;-60
2023/08/29 08:55:29;;;;;;;10.73;9.77;;;22.00;89.00;;;;;;5076106;28;20447;-60
2023/08/29 08:57:57;;;;;;;10.20;9.30;;;22.30;88.10;;;;;;5076093;28;20452;-60
2023/08/29 09:00:24;;;;;;;7.13;6.40;;;22.50;85.90;;;;;;5076211;28;20448;-60
2023/08/29 09:02:53;;;;;;;9.73;7.97;;;22.70;84.50;;;;;;5075791;28;20480;-60
2023/08/29 09:05:21;;;;;;;10.83;9.73;;;23.00;83.90;;;;;;5076030;28;20441;-60
2023/08/29 09:07:48;;;;;;;11.07;10.17;;;23.20;82.70;;;;;;5075972;28;20506;-60
2023/08/29 09:10:19;;;;;;;10.30;9.30;;;23.40;80.80;;;;;;5075903;28;20448;-60
2023/08/29 09:12:48;;;;;;;10.70;9.90;;;23.60;79.30;;;;;;5075762;28;20456;-60
2023/08/29 09:15:16;;;;;;;14.83;11.20;;;23.70;78.90;;;;;;5075867;28;20487;-60
2023/08/29 09:17:46;;;;;;;10.07;9.17;;;23.80;77.50;;;;;;5075549;28;20950;-60
2023/08/29 09:20:13;;;;;;;12.20;11.20;;;23.90;77.50;;;;;;5075717;28;20433;-59
2023/08/29 09:22:42;;;;;;;14.37;12.90;;;23.90;77.00;;;;;;5074365;28;20488;-59
2023/08/29 09:25:10;;;;;;;12.20;11.00;;;23.90;76.10;;;;;;5075572;28;20448;-59
2023/08/29 09:27:41;;;;;;;13.67;11.60;;;23.90;76.30;;;;;;5075046;28;20502;-60
2023/08/29 09:30:11;;;;;;;12.30;11.20;;;24.00;76.70;;;;;;5075589;28;20480;-60
2023/08/29 09:32:41;;;;;;;12.67;11.57;;;24.10;75.50;;;;;;5075386;28;20460;-60
2023/08/29 09:35:08;;;;;;;15.57;14.07;;;24.20;74.60;;;;;;5075038;28;20935;-59
2023/08/29 09:37:40;;;;;;;12.43;11.30;;;24.40;73.40;;;;;;5075395;28;20548;-60
2023/08/29 09:40:09;;;;;;;7.90;7.10;;;24.40;71.90;;;;;;5075388;28;20464;-59
2023/08/29 09:42:36;;;;;;;7.80;7.20;;;24.60;72.00;;;;;;5074846;28;20485;-59
2023/08/29 09:45:08;;;;;;;16.43;14.27;;;24.70;72.10;;;;;;5075095;28;20445;-59
2023/08/29 09:47:36;;;;;;;15.00;13.70;;;24.90;70.80;;;;;;5075298;28;20432;-60
2023/08/29 09:50:03;;;;;;;13.67;12.27;;;25.10;70.80;;;;;;5075087;28;20449;-60
2023/08/29 09:52:30;;;;;;;12.73;11.73;;;25.20;68.70;;;;;;5074945;28;20456;-59
2023/08/29 09:54:57;;;;;;;12.97;11.87;;;25.30;66.30;;;;;;5074893;28;20440;-60
2023/08/29 09:57:26;;;;;;;13.50;12.37;;;25.60;67.00;;;;;;5074760;28;20915;-60
2023/08/29 09:59:55;;;;;;;12.67;9.97;;;25.90;65.80;;;;;;5074876;28;20453;-59
2023/08/29 10:02:23;;;;;;;10.30;9.27;;;26.00;62.50;;;;;;5074741;28;20484;-60
2023/08/29 10:05:04;;;;;;;10.70;9.80;;;26.20;65.50;;;;;;5074778;28;20472;-60
2023/08/29 10:07:39;;;;;;;11.73;10.73;;;26.50;63.40;;;;;;5074790;28;20437;-59
2023/08/29 10:10:08;;;;;;;9.67;8.87;;;26.90;61.60;;;;;;5074652;28;20416;-60
2023/08/29 10:12:36;;;;;;;9.00;8.30;;;27.20;58.60;;;;;;5074450;28;20456;-60
2023/08/29 10:15:04;;;;;;;14.00;10.20;;;27.30;57.70;;;;;;5074359;28;20454;-60
2023/08/29 10:17:31;;;;;;;8.27;7.67;;;27.60;57.20;;;;;;5074476;28;20449;-60
2023/08/29 10:20:00;;;;;;;13.43;12.23;;;27.60;54.80;;;;;;5074111;28;20844;-60
2023/08/29 10:22:30;;;;;;;12.80;11.77;;;27.60;55.30;;;;;;5073934;28;20575;-60
2023/08/29 10:24:59;;;;;;;13.50;12.20;;;27.40;55.90;;;;;;5074393;28;20475;-60
2023/08/29 10:27:26;;;;;;;12.40;11.40;;;27.10;56.10;;;;;;5074351;28;20452;-60
2023/08/29 10:29:53;;;;;;;14.50;13.00;;;26.80;57.50;;;;;;5074438;28;20448;-60
2023/08/29 10:32:20;;;;;;;11.70;10.73;;;26.60;58.80;;;;;;5074312;28;20456;-60
2023/08/29 10:34:49;;;;;;;10.50;9.70;;;26.30;58.80;;;;;;5074443;28;20440;-60
2023/08/29 10:37:18;;;;;;;8.77;8.10;;;26.20;59.40;;;;;;5073886;28;20452;-59
2023/08/29 10:39:45;;;;;;;10.07;9.07;;;26.00;59.40;;;;;;5073850;28;20448;-60
2023/08/29 10:42:14;;;;;;;9.03;7.83;;;26.00;59.20;;;;;;5073972;28;20468;-60
2023/08/29 10:44:42;;;;;;;7.97;7.30;;;25.90;59.20;;;;;;5074054;28;20449;-60
2023/08/29 10:47:23;;;;;;;6.40;5.80;;;26.00;60.00;;;;;;5073690;28;20969;-60
2023/08/29 10:49:58;;;;;;;6.73;6.13;;;26.50;59.90;;;;;;5073607;28;20429;-59
2023/08/29 10:52:36;;;;;;;5.53;5.03;;;27.10;59.00;;;;;;5073980;28;20623;-60
2023/08/29 10:55:07;;;;;;;5.43;4.93;;;27.60;56.30;;;;;;5073905;28;20436;-60
2023/08/29 10:57:34;;;;;;;6.40;5.90;;;27.80;53.80;;;;;;5073656;28;20482;-60
2023/08/29 11:00:01;;;;;;;5.50;5.10;;;27.80;53.20;;;;;;5073788;28;20452;-60
2023/08/29 11:02:29;;;;;;;6.63;6.00;;;28.10;51.60;;;;;;5073307;28;20468;-60
2023/08/29 11:05:15;;;;;;;5.70;5.30;;;28.60;51.90;;;;;;5073497;28;21065;-60
2023/08/29 11:07:43;;;;;;;6.40;5.80;;;29.30;49.10;;;;;;5073713;28;20425;-57
2023/08/29 11:10:20;;;;;;;6.07;5.57;;;30.20;48.40;;;;;;5073475;28;20448;-58
2023/08/29 11:13:07;;;;;;;5.87;5.10;;;31.00;45.70;;;;;;5073613;28;20460;-58
2023/08/29 11:16:14;;;;;;;5.23;4.03;;;31.70;44.20;;;;;;5073371;28;20937;-59
2023/08/29 11:18:41;;;;;;;7.93;3.00;;;32.30;42.50;;;;;;5073533;28;20432;-59
2023/08/29 11:21:09;;;;;;;3.10;2.20;;;32.80;42.10;;;;;;5073187;28;20471;-59
2023/08/29 11:23:42;;;;;;;2.40;2.20;;;33.20;41.40;;;;;;5073506;28;20468;-59
2023/08/29 11:26:09;;;;;;;3.03;2.83;;;33.40;40.40;;;;;;5073531;28;20448;-59
2023/08/29 11:28:41;;;;;;;7.47;3.80;;;33.20;39.60;;;;;;5073574;28;20463;-59
2023/08/29 11:31:08;;;;;;;5.60;4.20;;;32.80;39.60;;;;;;5074980;28;21003;-59
2023/08/29 11:33:37;;;;;;;3.20;2.90;;;32.10;40.00;;;;;;5073152;28;20965;-58
2023/08/29 11:36:05;;;;;;;3.07;2.87;;;31.40;40.70;;;;;;5073424;28;20534;-59
2023/08/29 11:38:33;;;;;;;3.33;2.93;;;30.70;41.10;;;;;;5073324;28;20440;-59
2023/08/29 11:41:04;;;;;;;3.33;3.13;;;29.90;42.30;;;;;;5073260;28;20444;-59
2023/08/29 11:43:31;;;;;;;6.50;5.90;;;29.20;44.10;;;;;;5073084;28;20514;-59
2023/08/29 11:46:01;;;;;;;6.97;5.27;;;28.50;46.40;;;;;;5077708;28;20448;-59
2023/08/29 11:48:29;;;;;;;5.73;5.20;;;27.90;47.70;;;;;;5078356;28;20475;-59
2023/08/29 11:50:57;;;;;;;4.80;4.40;;;27.30;49.60;;;;;;5079771;28;20539;-59
2023/08/29 11:53:28;;;;;;;5.40;4.63;;;26.70;50.20;;;;;;5079802;28;20441;-59
2023/08/29 11:55:55;;;;;;;4.43;4.03;;;26.20;52.00;;;;;;5079806;28;20460;-59
2023/08/29 11:58:27;;;;;;;4.20;3.87;;;25.90;53.30;;;;;;5079346;28;20485;-59
2023/08/29 12:00:54;;;;;;;4.07;3.77;;;25.60;53.80;;;;;;5079660;28;20444;-59
2023/08/29 12:03:22;;;;;;;5.23;4.83;;;25.40;55.00;;;;;;5079265;28;20997;-59
2023/08/29 12:05:49;;;;;;;6.07;4.23;;;25.00;54.70;;;;;;5079712;28;20443;-59
2023/08/29 12:08:16;;;;;;;4.70;3.70;;;24.80;55.80;;;;;;5079704;28;20824;-59
2023/08/29 12:10:53;;;;;;;5.03;4.33;;;24.70;57.20;;;;;;5079780;28;20811;-59
2023/08/29 12:13:21;;;;;;;3.60;3.30;;;24.60;58.10;;;;;;5079658;28;20464;-59
2023/08/29 12:15:49;;;;;;;4.00;3.20;;;24.50;57.80;;;;;;5079741;28;20449;-59
2023/08/29 12:18:23;;;;;;;3.10;2.90;;;24.40;58.30;;;;;;5079287;28;20820;-59
2023/08/29 12:20:50;;;;;;;4.00;3.33;;;24.40;58.00;;;;;;5079132;28;20945;-59
2023/08/29 12:23:28;;;;;;;3.40;3.10;;;24.40;58.10;;;;;;5079586;28;20464;-59
2023/08/29 12:25:56;;;;;;;2.90;2.70;;;24.40;58.30;;;;;;5079650;28;20448;-59
2023/08/29 12:28:24;;;;;;;2.80;2.50;;;24.30;58.60;;;;;;5079546;28;20448;-60
2023/08/29 12:30:54;;;;;;;6.10;2.80;;;24.30;57.80;;;;;;5079252;28;20444;-59
2023/08/29 12:33:22;;;;;;;3.43;2.80;;;24.40;56.70;;;;;;5079134;28;20502;-59
2023/08/29 12:35:50;;;;;;;3.97;2.93;;;24.40;57.40;;;;;;5063495;28;20480;-60
2023/08/29 12:38:17;;;;;;;3.33;3.07;;;24.50;57.90;;;;;;5059362;28;20885;-60